createdAt,value
2023-05-08T00:01:34.466Z,28.10
2023-05-08T00:03:36.133Z,23.52
2023-05-08T00:05:37.944Z,20.35
2023-05-08T00:07:39.388Z,19.80
2023-05-08T00:09:40.796Z,15.48
2023-05-08T00:11:42.389Z,19.38
2023-05-08T00:13:43.797Z,17.23
2023-05-08T00:15:45.349Z,15.13
2023-05-08T00:17:47.390Z,14.30
2023-05-08T00:19:48.905Z,13.38
2023-05-08T00:21:50.326Z,12.75
2023-05-08T00:23:51.936Z,11.38
2023-05-08T00:25:53.360Z,12.25
2023-05-08T00:27:54.783Z,10.70
2023-05-08T00:29:56.215Z,11.93
2023-05-08T00:31:57.704Z,11.68
2023-05-08T00:33:59.220Z,28.17
2023-05-08T00:36:02.373Z,29.83
2023-05-08T00:38:03.805Z,25.20
2023-05-08T00:40:05.904Z,20.85
2023-05-08T00:42:07.735Z,25.15
2023-05-08T00:44:09.215Z,20.40
2023-05-08T00:46:11.447Z,20.13
2023-05-08T00:48:13.110Z,19.65
2023-05-08T00:50:14.911Z,23.58
2023-05-08T00:52:17.569Z,30.60
2023-05-08T00:54:19.545Z,34.55
2023-05-08T00:56:23.677Z,42.88
2023-05-08T00:58:27.008Z,39.55
2023-05-08T01:00:29.123Z,38.15
2023-05-08T01:02:31.488Z,54.55
2023-05-08T01:04:34.893Z,48.03
2023-05-08T01:06:37.289Z,46.95
2023-05-08T01:08:39.069Z,36.22
2023-05-08T01:10:48.092Z,46.25
2023-05-08T01:13:26.885Z,36.08
2023-05-08T01:15:38.412Z,46.22
2023-05-08T01:17:48.892Z,42.45
2023-05-08T01:20:03.350Z,42.97
2023-05-08T01:22:29.260Z,45.85
2023-05-08T01:25:16.528Z,37.90
2023-05-08T01:27:42.270Z,52.83
2023-05-08T01:30:21.996Z,51.20
2023-05-08T01:32:30.039Z,43.53
2023-05-08T01:34:33.244Z,40.42
2023-05-08T01:36:52.101Z,52.72
2023-05-08T01:39:10.541Z,118.35
2023-05-08T01:41:18.429Z,120.65
2023-05-08T01:43:30.186Z,104.97
2023-05-08T01:45:44.871Z,68.32
2023-05-08T01:47:51.783Z,54.95
2023-05-08T01:50:21.088Z,68.28
2023-05-08T01:52:34.443Z,50.55
2023-05-08T01:54:55.475Z,52.35
2023-05-08T01:56:59.516Z,40.72
2023-05-08T01:59:02.335Z,46.53
2023-05-08T02:01:04.850Z,46.38
2023-05-08T02:03:08.630Z,41.95
2023-05-08T02:05:10.960Z,45.25
2023-05-08T02:07:12.659Z,51.38
2023-05-08T02:09:15.309Z,46.15
2023-05-08T02:11:18.308Z,36.45
2023-05-08T02:13:21.857Z,42.08
2023-05-08T02:15:25.939Z,38.97
2023-05-08T02:17:28.900Z,41.40
2023-05-08T02:19:31.422Z,40.08
2023-05-08T02:21:33.984Z,44.55
2023-05-08T02:23:36.057Z,37.75
2023-05-08T02:25:38.963Z,46.22
2023-05-08T02:27:43.499Z,59.88
2023-05-08T02:29:45.044Z,41.60
2023-05-08T02:31:48.151Z,43.88
2023-05-08T02:33:51.828Z,52.33
2023-05-08T02:37:57.116Z,57.92
2023-05-08T02:39:58.988Z,43.22
2023-05-08T02:42:00.626Z,46.58
2023-05-08T02:44:02.242Z,64.55
2023-05-08T02:46:21.041Z,48.25
2023-05-08T02:48:33.299Z,40.70
2023-05-08T02:50:48.536Z,54.67
2023-05-08T02:52:54.384Z,54.42
2023-05-08T02:55:08.688Z,45.25
2023-05-08T02:57:28.627Z,45.30
2023-05-08T02:59:42.364Z,39.42
2023-05-08T03:02:02.291Z,35.88
2023-05-08T03:04:07.620Z,47.90
2023-05-08T03:06:26.346Z,33.45
2023-05-08T03:08:30.959Z,38.30
2023-05-08T03:10:35.129Z,32.30
2023-05-08T03:12:42.789Z,33.95
2023-05-08T03:14:54.810Z,34.50
2023-05-08T03:16:59.067Z,44.88
2023-05-08T03:19:03.806Z,53.25
2023-05-08T03:21:07.255Z,39.90
2023-05-08T03:23:10.094Z,34.78
2023-05-08T03:25:14.139Z,34.45
2023-05-08T03:27:16.783Z,47.65
2023-05-08T03:29:19.752Z,38.08
2023-05-08T03:31:23.017Z,39.10
2023-05-08T03:33:25.519Z,34.95
2023-05-08T03:35:27.718Z,33.22
2023-05-08T03:37:29.645Z,37.40
2023-05-08T03:39:31.319Z,32.75
2023-05-08T03:41:32.922Z,42.67
2023-05-08T03:43:36.743Z,38.45
2023-05-08T03:45:40.555Z,56.63
2023-05-08T03:47:44.318Z,51.40
2023-05-08T03:49:47.578Z,52.60
2023-05-08T03:51:49.773Z,47.97
2023-05-08T03:53:51.184Z,39.75
2023-05-08T03:55:52.697Z,51.95
2023-05-08T03:58:04.516Z,39.75
2023-05-08T04:00:24.632Z,38.00
2023-05-08T04:02:50.557Z,40.35
2023-05-08T04:05:00.551Z,44.63
2023-05-08T04:07:34.778Z,40.92
2023-05-08T04:09:41.708Z,47.65
2023-05-08T04:11:52.294Z,36.47
2023-05-08T04:14:00.660Z,41.45
2023-05-08T04:16:15.836Z,38.40
2023-05-08T04:18:22.181Z,29.67
2023-05-08T04:20:27.154Z,27.58
2023-05-08T04:22:31.731Z,28.80
2023-05-08T04:24:37.119Z,32.65
2023-05-08T04:26:39.739Z,24.65
2023-05-08T04:28:41.544Z,23.42
2023-05-08T04:30:43.093Z,21.92
2023-05-08T04:32:46.631Z,24.55
2023-05-08T04:34:48.943Z,25.48
2023-05-08T04:36:50.488Z,20.17
2023-05-08T04:38:51.957Z,20.13
2023-05-08T04:40:53.526Z,18.58
2023-05-08T04:42:55.485Z,17.98
2023-05-08T04:44:56.888Z,18.80
2023-05-08T04:46:58.393Z,19.90
2023-05-08T04:48:59.901Z,15.57
2023-05-08T04:51:01.297Z,17.13
2023-05-08T04:53:02.974Z,16.92
2023-05-08T04:55:05.044Z,16.67
2023-05-08T04:57:06.455Z,17.83
2023-05-08T04:59:08.019Z,14.68
2023-05-08T05:01:09.714Z,16.42
2023-05-08T05:03:11.315Z,15.30
2023-05-08T05:05:13.195Z,16.52
2023-05-08T05:07:15.037Z,13.38
2023-05-08T05:09:16.465Z,12.40
2023-05-08T05:11:18.115Z,15.38
2023-05-08T05:13:19.706Z,13.82
2023-05-08T05:15:21.135Z,14.50
2023-05-08T05:17:23.221Z,10.77
2023-05-08T05:19:24.850Z,11.18
2023-05-08T05:21:26.307Z,13.07
2023-05-08T05:23:27.912Z,12.32
2023-05-08T05:25:29.410Z,11.85
2023-05-08T05:27:30.923Z,9.93
2023-05-08T05:29:32.456Z,14.68
2023-05-08T05:31:33.995Z,11.95
2023-05-08T05:33:35.552Z,12.38
2023-05-08T05:35:37.112Z,9.25
2023-05-08T05:37:38.771Z,10.60
2023-05-08T05:39:40.174Z,9.70
2023-05-08T05:41:41.674Z,9.65
2023-05-08T05:43:43.152Z,8.18
2023-05-08T05:45:44.580Z,8.30
2023-05-08T05:47:46.657Z,9.02
2023-05-08T05:49:48.356Z,8.80
2023-05-08T05:51:49.730Z,10.98
2023-05-08T05:53:51.161Z,9.73
2023-05-08T05:55:52.543Z,8.20
2023-05-08T05:57:53.954Z,8.45
2023-05-08T05:59:55.347Z,7.80
2023-05-08T06:01:57.005Z,7.70
2023-05-08T06:03:58.491Z,6.38
2023-05-08T06:06:00.035Z,5.90
2023-05-08T06:08:01.644Z,5.00
2023-05-08T06:10:03.111Z,6.30
2023-05-08T06:12:04.574Z,7.82
2023-05-08T06:14:06.169Z,5.22
2023-05-08T06:16:07.987Z,8.45
2023-05-08T06:18:09.672Z,7.70
2023-05-08T06:20:11.364Z,7.05
2023-05-08T06:22:12.844Z,6.82
2023-05-08T06:24:14.364Z,6.40
2023-05-08T06:26:15.792Z,7.95
2023-05-08T06:28:17.774Z,7.70
2023-05-08T06:30:19.460Z,5.03
2023-05-08T06:32:21.061Z,6.85
2023-05-08T06:34:22.726Z,7.00
2023-05-08T06:36:24.276Z,7.72
2023-05-08T06:38:25.671Z,5.93
2023-05-08T06:40:27.233Z,5.72
2023-05-08T06:42:28.947Z,7.93
2023-05-08T06:44:30.371Z,6.22
2023-05-08T06:46:32.103Z,6.22
2023-05-08T06:48:34.403Z,6.72
2023-05-08T06:50:39.599Z,6.00
2023-05-08T06:52:41.108Z,7.35
2023-05-08T06:54:42.683Z,5.15
2023-05-08T06:56:44.095Z,7.10
2023-05-08T06:58:56.554Z,8.40
2023-05-08T07:01:06.556Z,6.85
2023-05-08T07:03:08.074Z,6.88
2023-05-08T07:05:09.979Z,7.65
2023-05-08T07:07:11.690Z,5.47
2023-05-08T07:09:13.138Z,6.30
2023-05-08T07:11:14.795Z,5.55
2023-05-08T07:13:17.594Z,5.68
2023-05-08T07:15:25.959Z,5.22
2023-05-08T07:17:27.785Z,5.85
2023-05-08T07:19:29.228Z,3.83
2023-05-08T07:21:30.667Z,5.22
2023-05-08T07:23:32.413Z,5.40
2023-05-08T07:25:33.834Z,5.20
2023-05-08T07:27:35.268Z,5.72
2023-05-08T07:29:39.067Z,6.70
2023-05-08T07:31:40.712Z,6.65
2023-05-08T07:33:42.219Z,6.30
2023-05-08T07:35:43.719Z,5.38
2023-05-08T07:37:45.314Z,4.90
2023-05-08T07:39:46.710Z,4.50
2023-05-08T07:41:49.888Z,5.60
2023-05-08T07:43:51.805Z,6.65
2023-05-08T07:45:53.313Z,6.78
2023-05-08T07:47:57.147Z,7.68
2023-05-08T07:49:58.799Z,5.70
2023-05-08T07:52:00.249Z,6.55
2023-05-08T07:54:01.819Z,6.47
2023-05-08T07:56:03.340Z,5.40
2023-05-08T07:58:04.773Z,5.22
2023-05-08T08:00:09.982Z,5.55
2023-05-08T08:02:11.484Z,6.45
2023-05-08T08:04:15.323Z,5.38
2023-05-08T08:06:17.074Z,5.30
2023-05-08T08:08:18.682Z,5.47
2023-05-08T08:10:20.166Z,6.45
2023-05-08T08:12:21.900Z,4.43
2023-05-08T08:14:23.627Z,3.63
2023-05-08T08:16:25.943Z,3.83
2023-05-08T08:18:27.592Z,4.55
2023-05-08T08:20:29.244Z,3.90
2023-05-08T08:22:30.781Z,3.80
2023-05-08T08:24:32.257Z,5.78
2023-05-08T08:26:33.844Z,6.00
2023-05-08T08:28:35.268Z,4.88
2023-05-08T08:30:36.922Z,4.30
2023-05-08T08:32:38.447Z,4.75
2023-05-08T08:34:39.858Z,4.95
2023-05-08T08:36:41.507Z,5.15
2023-05-08T08:38:42.913Z,4.75
2023-05-08T08:40:44.346Z,6.55
2023-05-08T08:42:45.818Z,4.00
2023-05-08T08:44:47.515Z,5.00
2023-05-08T08:46:51.547Z,5.90
2023-05-08T08:48:57.450Z,4.10
2023-05-08T08:51:06.284Z,7.10
2023-05-08T08:53:19.182Z,5.43
2023-05-08T08:55:22.539Z,3.97
2023-05-08T08:57:27.327Z,6.93
2023-05-08T08:59:29.886Z,3.88
2023-05-08T09:01:34.528Z,4.15
2023-05-08T09:03:36.302Z,5.35
2023-05-08T09:05:38.638Z,4.25
2023-05-08T09:07:40.481Z,7.80
2023-05-08T09:09:43.336Z,5.97
2023-05-08T09:11:46.440Z,4.05
2023-05-08T09:13:48.068Z,5.55
2023-05-08T09:15:49.731Z,3.95
2023-05-08T09:17:51.158Z,6.68
2023-05-08T09:19:53.252Z,4.53
2023-05-08T09:21:55.098Z,3.13
2023-05-08T09:23:56.455Z,5.80
2023-05-08T09:25:58.187Z,5.00
2023-05-08T09:28:17.078Z,8.07
2023-05-08T09:30:18.465Z,5.53
2023-05-08T09:32:20.113Z,5.47
2023-05-08T09:34:29.979Z,4.35
2023-05-08T09:36:31.393Z,6.88
2023-05-08T09:38:37.944Z,5.00
2023-05-08T09:40:39.618Z,4.78
2023-05-08T09:42:41.174Z,6.50
2023-05-08T09:44:53.641Z,8.45
2023-05-08T09:47:16.385Z,4.65
2023-05-08T09:49:18.285Z,7.20
2023-05-08T09:51:20.592Z,5.03
2023-05-08T09:53:31.453Z,5.68
2023-05-08T09:55:46.911Z,4.70
2023-05-08T09:57:56.577Z,6.03
2023-05-08T10:00:05.807Z,6.85
2023-05-08T10:02:11.191Z,7.03
2023-05-08T10:04:13.000Z,5.88
2023-05-08T10:06:15.153Z,5.60
2023-05-08T10:08:21.796Z,4.85
2023-05-08T10:10:28.064Z,7.78
2023-05-08T10:12:30.159Z,4.70
2023-05-08T10:14:31.579Z,5.55
2023-05-08T10:16:44.322Z,4.97
2023-05-08T10:18:50.249Z,4.15
2023-05-08T10:20:55.180Z,7.00
2023-05-08T10:22:57.650Z,4.88
2023-05-08T10:25:02.341Z,4.50
2023-05-08T10:27:52.739Z,4.35
2023-05-08T10:29:56.188Z,7.75
2023-05-08T10:31:59.616Z,5.97
2023-05-08T10:34:02.561Z,5.38
2023-05-08T10:36:05.085Z,7.07
2023-05-08T10:38:08.743Z,5.15
2023-05-08T10:42:15.093Z,4.53
2023-05-08T10:44:17.094Z,4.47
2023-05-08T10:46:29.069Z,26.88
2023-05-08T10:48:52.515Z,93.45
2023-05-08T10:51:06.392Z,5.40
2023-05-08T10:53:15.793Z,5.05
2023-05-08T10:55:29.869Z,5.95
2023-05-08T10:59:36.129Z,6.78
2023-05-08T11:01:39.613Z,5.25
2023-05-08T11:03:46.522Z,5.15
2023-05-08T11:05:50.156Z,6.03
2023-05-08T11:07:59.337Z,14.07
2023-05-08T11:10:13.080Z,10.85
2023-05-08T11:14:24.951Z,5.72
2023-05-08T11:16:54.504Z,5.97
2023-05-08T11:19:18.444Z,8.82
2023-05-08T11:21:21.189Z,14.75
2023-05-08T11:23:34.074Z,6.57
2023-05-08T11:25:42.588Z,4.95
2023-05-08T11:27:46.913Z,5.38
2023-05-08T11:30:25.065Z,11.55
2023-05-08T11:33:11.625Z,8.38
2023-05-08T11:35:13.795Z,5.20
2023-05-08T11:37:23.094Z,5.68
2023-05-08T11:39:24.795Z,5.60
2023-05-08T11:41:26.211Z,13.27
2023-05-08T11:43:33.602Z,14.93
2023-05-08T11:45:41.267Z,48.25
2023-05-08T11:47:44.551Z,29.20
2023-05-08T11:49:46.154Z,28.20
2023-05-08T11:51:53.071Z,7.22
2023-05-08T11:53:54.506Z,6.25
2023-05-08T11:55:56.343Z,7.35
2023-05-08T11:57:57.947Z,7.07
2023-05-08T12:00:12.427Z,4.97
2023-05-08T12:02:14.237Z,6.45
2023-05-08T12:04:15.898Z,5.95
2023-05-08T12:06:18.766Z,5.82
2023-05-08T12:08:20.363Z,4.43
2023-05-08T12:10:21.883Z,4.68
2023-05-08T12:12:23.303Z,5.15
2023-05-08T12:14:25.040Z,4.65
2023-05-08T12:16:26.765Z,5.18
2023-05-08T12:18:28.790Z,8.05
2023-05-08T12:20:32.033Z,5.28
2023-05-08T12:22:35.153Z,5.53
2023-05-08T12:24:36.621Z,7.72
2023-05-08T12:26:38.581Z,5.47
2023-05-08T12:28:40.168Z,12.00
2023-05-08T12:30:42.184Z,5.18
2023-05-08T12:32:44.600Z,5.93
2023-05-08T12:34:46.225Z,6.88
2023-05-08T12:36:47.665Z,5.55
2023-05-08T12:38:51.698Z,3.83
2023-05-08T12:40:53.747Z,5.45
2023-05-08T12:42:55.223Z,6.70
2023-05-08T12:44:57.659Z,4.35
2023-05-08T12:46:59.428Z,5.20
2023-05-08T12:49:02.052Z,4.47
2023-05-08T12:51:04.777Z,3.75
2023-05-08T12:53:08.559Z,5.63
2023-05-08T12:55:23.408Z,5.85
2023-05-08T12:57:24.946Z,5.45
2023-05-08T12:59:32.555Z,7.43
2023-05-08T13:01:33.969Z,5.88
2023-05-08T13:03:36.465Z,5.10
2023-05-08T13:05:42.251Z,13.98
2023-05-08T13:07:43.715Z,3.63
2023-05-08T13:10:01.924Z,8.15
2023-05-08T13:12:03.539Z,5.15
2023-05-08T13:14:04.948Z,6.47
2023-05-08T13:16:07.722Z,5.38
2023-05-08T13:18:09.500Z,7.13
2023-05-08T13:20:11.549Z,4.90
2023-05-08T13:22:13.359Z,5.95
2023-05-08T13:24:15.164Z,4.70
2023-05-08T13:26:16.626Z,3.97
2023-05-08T13:28:18.240Z,4.88
2023-05-08T13:30:19.772Z,4.55
2023-05-08T13:32:21.301Z,4.93
2023-05-08T13:34:22.962Z,6.63
2023-05-08T13:36:24.757Z,18.27
2023-05-08T13:38:26.204Z,39.45
2023-05-08T13:40:28.226Z,8.30
2023-05-08T13:42:29.830Z,6.72
2023-05-08T13:44:31.229Z,6.13
2023-05-08T13:46:32.788Z,4.20
2023-05-08T13:48:34.415Z,6.25
2023-05-08T13:50:35.901Z,14.55
2023-05-08T13:52:38.620Z,6.55
2023-05-08T13:54:40.110Z,22.33
2023-05-08T13:56:41.639Z,9.48
2023-05-08T13:58:43.227Z,4.93
2023-05-08T14:00:44.734Z,4.68
2023-05-08T14:02:46.612Z,5.97
2023-05-08T14:04:48.246Z,7.30
2023-05-08T14:06:50.000Z,7.47
2023-05-08T14:08:54.230Z,8.52
2023-05-08T14:10:56.884Z,6.18
2023-05-08T14:12:58.483Z,5.68
2023-05-08T14:14:59.904Z,6.90
2023-05-08T14:17:01.859Z,6.28
2023-05-08T14:19:03.477Z,9.02
2023-05-08T14:21:04.905Z,8.65
2023-05-08T14:23:06.397Z,5.75
2023-05-08T14:25:08.691Z,10.27
2023-05-08T14:27:10.432Z,8.95
2023-05-08T14:29:12.074Z,5.38
2023-05-08T14:31:13.708Z,9.80
2023-05-08T14:33:17.149Z,5.15
2023-05-08T14:35:20.089Z,4.85
2023-05-08T14:37:21.586Z,6.18
2023-05-08T14:39:23.055Z,8.63
2023-05-08T14:41:28.879Z,6.55
2023-05-08T14:43:30.560Z,8.02
2023-05-08T14:45:31.971Z,10.02
2023-05-08T14:47:33.498Z,7.15
2023-05-08T14:49:38.394Z,8.60
2023-05-08T14:51:40.305Z,7.88
2023-05-08T14:53:42.076Z,7.57
2023-05-08T14:57:49.200Z,11.88
2023-05-08T14:59:55.055Z,6.40
2023-05-08T15:01:56.987Z,7.28
2023-05-08T15:03:58.552Z,7.45
2023-05-08T15:06:00.137Z,5.88
2023-05-08T15:08:01.587Z,5.60
2023-05-08T15:10:03.622Z,6.70
2023-05-08T15:12:05.488Z,4.13
2023-05-08T15:14:06.957Z,6.22
2023-05-08T15:16:08.546Z,6.65
2023-05-08T15:18:10.167Z,11.13
2023-05-08T15:20:11.692Z,10.57
2023-05-08T15:22:13.462Z,9.32
2023-05-08T15:24:14.972Z,4.55
2023-05-08T15:26:16.447Z,5.05
2023-05-08T15:28:17.956Z,7.93
2023-05-08T15:30:20.503Z,5.78
2023-05-08T15:32:22.161Z,9.20
2023-05-08T15:34:26.371Z,7.57
2023-05-08T15:36:30.500Z,8.95
2023-05-08T15:38:32.029Z,8.73
2023-05-08T15:40:33.983Z,6.53
2023-05-08T15:42:35.589Z,12.75
2023-05-08T15:44:53.906Z,7.72
2023-05-08T15:46:56.402Z,5.63
2023-05-08T15:48:58.558Z,8.23
2023-05-08T15:51:01.327Z,6.70
2023-05-08T15:53:02.770Z,12.40
2023-05-08T15:55:05.357Z,8.40
2023-05-08T15:57:06.840Z,21.50
2023-05-08T15:59:08.292Z,6.80
2023-05-08T16:01:09.816Z,12.10
2023-05-08T16:03:11.562Z,36.17
2023-05-08T16:05:13.315Z,41.05
2023-05-08T16:07:15.100Z,33.67
2023-05-08T16:09:16.509Z,16.75
2023-05-08T16:11:17.910Z,24.02
2023-05-08T16:13:19.698Z,20.17
2023-05-08T16:15:21.321Z,25.38
2023-05-08T16:17:22.771Z,11.80
2023-05-08T16:19:24.521Z,60.08
2023-05-08T16:21:25.999Z,36.20
2023-05-08T16:23:27.419Z,15.30
2023-05-08T16:25:28.897Z,7.03
2023-05-08T16:27:30.447Z,16.35
2023-05-08T16:29:31.851Z,24.48
2023-05-08T16:31:33.606Z,5.72
2023-05-08T16:33:35.187Z,19.15
2023-05-08T16:35:36.621Z,7.10
2023-05-08T16:37:38.198Z,11.10
2023-05-08T16:39:39.832Z,13.40
2023-05-08T16:41:41.233Z,14.73
2023-05-08T16:43:42.749Z,12.73
2023-05-08T16:45:44.420Z,12.88
2023-05-08T16:47:46.072Z,11.95
2023-05-08T16:49:47.675Z,14.45
2023-05-08T16:51:49.346Z,11.30
2023-05-08T16:53:50.752Z,28.38
2023-05-08T16:55:52.185Z,18.95
2023-05-08T16:57:53.676Z,16.27
2023-05-08T16:59:55.087Z,31.48
2023-05-08T17:01:56.692Z,18.55
2023-05-08T17:03:58.300Z,39.63
2023-05-08T17:05:59.737Z,11.43
2023-05-08T17:08:01.351Z,8.90
2023-05-08T17:10:02.924Z,22.08
2023-05-08T17:12:04.710Z,17.50
2023-05-08T17:14:06.248Z,20.10
2023-05-08T17:16:07.777Z,13.75
2023-05-08T17:18:09.228Z,10.48
2023-05-08T17:20:11.818Z,14.32
2023-05-08T17:22:13.653Z,20.63
2023-05-08T17:24:15.037Z,25.40
2023-05-08T17:26:18.103Z,25.63
2023-05-08T17:28:19.532Z,27.52
2023-05-08T17:30:20.978Z,45.47
2023-05-08T17:32:22.565Z,35.15
2023-05-08T17:34:24.187Z,36.03
2023-05-08T17:36:25.637Z,25.70
2023-05-08T17:38:27.258Z,11.60
2023-05-08T17:40:28.879Z,11.63
2023-05-08T17:42:30.291Z,8.32
2023-05-08T17:44:31.950Z,23.67
2023-05-08T17:46:33.455Z,72.38
2023-05-08T17:48:35.248Z,95.50
2023-05-08T17:50:36.953Z,56.05
2023-05-08T17:52:38.570Z,66.72
2023-05-08T17:54:39.985Z,60.70
2023-05-08T17:56:41.508Z,216.30
2023-05-08T17:58:42.994Z,103.32
2023-05-08T18:00:44.428Z,72.47
2023-05-08T18:02:46.098Z,56.53
2023-05-08T18:04:47.791Z,70.70
2023-05-08T18:06:49.247Z,35.78
2023-05-08T18:08:50.839Z,33.33
2023-05-08T18:10:52.454Z,19.45
2023-05-08T18:12:53.938Z,19.15
2023-05-08T18:14:55.649Z,15.30
2023-05-08T18:16:57.394Z,27.35
2023-05-08T18:18:58.819Z,20.08
2023-05-08T18:21:00.441Z,15.60
2023-05-08T18:23:01.984Z,21.83
2023-05-08T18:25:03.596Z,22.50
2023-05-08T18:27:05.201Z,419.92
2023-05-08T18:29:07.424Z,514.40
2023-05-08T18:31:09.303Z,236.10
2023-05-08T18:33:10.875Z,96.25
2023-05-08T18:35:12.521Z,32.05
2023-05-08T18:37:13.946Z,54.25
2023-05-08T18:39:15.547Z,58.50
2023-05-08T18:41:17.032Z,37.92
2023-05-08T18:43:18.429Z,28.75
2023-05-08T18:45:19.979Z,19.63
2023-05-08T18:47:21.646Z,11.73
2023-05-08T18:49:23.040Z,10.73
2023-05-08T18:51:24.660Z,26.80
2023-05-08T18:53:26.360Z,13.45
2023-05-08T18:55:27.791Z,9.63
2023-05-08T18:57:29.270Z,9.75
2023-05-08T18:59:30.840Z,14.98
2023-05-08T19:01:32.268Z,31.42
2023-05-08T19:03:33.951Z,35.60
2023-05-08T19:05:35.375Z,31.23
2023-05-08T19:07:37.214Z,28.75
2023-05-08T19:09:38.750Z,30.67
2023-05-08T19:11:40.333Z,29.52
2023-05-08T19:13:41.748Z,16.73
2023-05-08T19:15:43.366Z,20.80
2023-05-08T19:17:45.508Z,20.70
2023-05-08T19:19:49.051Z,20.80
2023-05-08T19:21:50.599Z,30.05
2023-05-08T19:23:52.066Z,21.23
2023-05-08T19:25:53.559Z,52.08
2023-05-08T19:27:55.089Z,31.27
2023-05-08T19:29:56.506Z,38.63
2023-05-08T19:31:57.994Z,36.72
2023-05-08T19:34:00.392Z,58.17
2023-05-08T19:36:01.822Z,71.18
2023-05-08T19:38:03.203Z,66.25
2023-05-08T19:40:05.810Z,51.75
2023-05-08T19:42:07.208Z,32.15
2023-05-08T19:44:08.781Z,31.85
2023-05-08T19:46:10.387Z,44.35
2023-05-08T19:48:17.858Z,38.05
2023-05-08T19:50:19.914Z,35.72
2023-05-08T19:52:21.484Z,43.72
2023-05-08T19:54:22.862Z,54.05
2023-05-08T19:56:24.374Z,47.85
2023-05-08T19:58:25.952Z,70.78
2023-05-08T20:00:27.358Z,133.52
2023-05-08T20:02:28.995Z,91.13
2023-05-08T20:04:30.694Z,120.35
2023-05-08T20:06:32.792Z,91.10
2023-05-08T20:08:34.296Z,95.72
2023-05-08T20:10:35.828Z,65.20
2023-05-08T20:12:37.240Z,56.58
2023-05-08T20:14:38.734Z,53.33
2023-05-08T20:16:40.374Z,54.63
2023-05-08T20:18:41.924Z,46.13
2023-05-08T20:20:43.373Z,54.85
2023-05-08T20:22:44.926Z,117.47
2023-05-08T20:24:46.326Z,49.00
2023-05-08T20:26:47.761Z,50.35
2023-05-08T20:28:49.189Z,61.38
2023-05-08T20:30:50.635Z,66.07
2023-05-08T20:32:52.293Z,42.58
2023-05-08T20:34:53.739Z,35.35
2023-05-08T20:36:56.002Z,28.20
2023-05-08T20:38:57.527Z,23.95
2023-05-08T20:41:01.035Z,29.77
2023-05-08T20:43:02.838Z,29.65
2023-05-08T20:45:04.637Z,29.33
2023-05-08T20:47:06.310Z,31.67
2023-05-08T20:49:07.786Z,34.28
2023-05-08T20:51:09.285Z,33.20
2023-05-08T20:53:10.723Z,33.78
2023-05-08T20:55:12.313Z,37.80
2023-05-08T20:57:14.285Z,49.47
2023-05-08T20:59:15.686Z,40.55
2023-05-08T21:01:19.217Z,36.95
2023-05-08T21:03:22.260Z,42.95
2023-05-08T21:05:23.807Z,41.50
2023-05-08T21:07:28.099Z,41.05
2023-05-08T21:09:29.589Z,41.17
2023-05-08T21:11:31.134Z,30.23
2023-05-08T21:13:32.730Z,33.55
2023-05-08T21:15:34.211Z,35.08
2023-05-08T21:17:35.732Z,42.33
2023-05-08T21:19:37.214Z,53.95
2023-05-08T21:21:38.666Z,54.20
2023-05-08T21:23:40.399Z,65.28
2023-05-08T21:25:41.816Z,76.88
2023-05-08T21:27:43.772Z,68.13
2023-05-08T21:29:45.357Z,61.13
2023-05-08T21:31:46.870Z,50.50
2023-05-08T21:33:48.371Z,53.38
2023-05-08T21:35:49.997Z,38.15
2023-05-08T21:37:53.822Z,47.65
2023-05-08T21:39:56.073Z,46.80
2023-05-08T21:41:57.620Z,38.42
2023-05-08T21:43:59.057Z,40.33
2023-05-08T21:46:00.758Z,40.00
2023-05-08T21:48:02.673Z,34.33
2023-05-08T21:50:04.260Z,35.47
2023-05-08T21:52:05.742Z,34.03
2023-05-08T21:54:07.689Z,35.72
2023-05-08T21:56:09.145Z,35.85
2023-05-08T21:58:10.553Z,40.47
2023-05-08T22:00:12.770Z,39.95
2023-05-08T22:02:14.219Z,41.10
2023-05-08T22:04:15.612Z,38.25
2023-05-08T22:06:17.124Z,41.05
2023-05-08T22:08:18.515Z,45.55
2023-05-08T22:10:19.953Z,48.28
2023-05-08T22:12:21.465Z,50.20
2023-05-08T22:14:22.908Z,39.92
2023-05-08T22:16:24.400Z,39.53
2023-05-08T22:18:25.997Z,47.00
2023-05-08T22:20:27.470Z,48.85
2023-05-08T22:22:28.932Z,41.38
2023-05-08T22:24:30.487Z,39.92
2023-05-08T22:26:31.874Z,37.40
2023-05-08T22:28:33.365Z,39.25
2023-05-08T22:30:34.855Z,36.35
2023-05-08T22:32:36.382Z,37.60
2023-05-08T22:34:37.953Z,39.47
2023-05-08T22:36:39.535Z,60.60
2023-05-08T22:38:40.940Z,54.15
2023-05-08T22:40:42.523Z,49.78
2023-05-08T22:42:44.943Z,45.28
2023-05-08T22:44:46.447Z,42.22
2023-05-08T22:46:48.084Z,39.67
2023-05-08T22:48:50.912Z,41.83
2023-05-08T22:50:52.350Z,42.05
2023-05-08T22:52:53.892Z,38.53
2023-05-08T22:54:55.454Z,42.75
2023-05-08T22:56:56.859Z,79.75
2023-05-08T22:58:58.343Z,44.85
2023-05-08T23:01:00.008Z,32.75
2023-05-08T23:03:01.515Z,32.58
2023-05-08T23:05:03.204Z,34.53
2023-05-08T23:07:04.831Z,73.78
2023-05-08T23:09:06.241Z,60.83
2023-05-08T23:11:07.800Z,51.65
2023-05-08T23:13:09.641Z,45.10
2023-05-08T23:15:11.972Z,35.47
2023-05-08T23:17:13.877Z,49.58
2023-05-08T23:19:16.663Z,49.30
2023-05-08T23:21:18.075Z,52.63
2023-05-08T23:23:19.556Z,61.55
2023-05-08T23:25:21.382Z,57.78
2023-05-08T23:27:22.846Z,62.17
2023-05-08T23:29:24.427Z,56.53
2023-05-08T23:31:26.018Z,54.13
2023-05-08T23:33:28.344Z,40.38
2023-05-08T23:35:29.848Z,41.80
2023-05-08T23:37:31.473Z,39.72
2023-05-08T23:39:33.456Z,34.35
2023-05-08T23:41:35.208Z,36.17
2023-05-08T23:43:37.272Z,36.60
2023-05-08T23:45:38.699Z,31.20
2023-05-08T23:47:40.665Z,37.58
2023-05-08T23:49:42.082Z,37.33
2023-05-08T23:51:43.482Z,44.08
2023-05-08T23:53:45.090Z,34.40
2023-05-08T23:55:49.923Z,37.50
2023-05-08T23:57:51.468Z,35.67
2023-05-08T23:59:53.176Z,38.05
